Little C — WCX810 — position and weather

sailwx.info

Track history (hours):
 
Tides and Currents Weather Stations Pressure Air Temp Water Temp Dewpoint Dewpoint Depression Visibility Wind Speed Wind Dir Waves Ship Positions

Little C

Last reported at 2017-Nov-18 19:45 UTC. Time now 2017-Nov-24 11:11 UTC.
Position N 40°43' W 074°03'.

Type: Tug. MMSI: 367308350.

Date/timePositionNaut miles runAvg speedWind from/ knotsBaromVisibWave heightAir tempDewpointWater temp
2017-Nov-18 19:45N 40°43' W 074°03'0 0.1
2017-Nov-18 19:30N 40°43' W 074°03'1 2.6
2017-Nov-18 19:00N 40°42' W 074°01'1 2.2
2017-Nov-18 18:30N 40°42' W 074°00'0 0.0
2017-Nov-18 18:00N 40°42' W 074°00'2 0.0
2017-Nov-16 16:55N 40°43' W 074°03'2 5.7
2017-Nov-16 16:30N 40°42' W 074°00'0 0.1
2017-Nov-16 16:00N 40°42' W 074°00'0 0.2
2017-Nov-16 15:30N 40°42' W 074°00'1 1.5
2017-Nov-16 15:00N 40°42' W 074°01'2 3.3
2017-Nov-16 14:30N 40°43' W 074°03'0 0.0
2017-Nov-16 14:00N 40°43' W 074°03'0 0.0
2017-Nov-16 13:30N 40°43' W 074°03'0 0.0
2017-Nov-16 13:00N 40°43' W 074°03'0 0.0
2017-Nov-14 13:22N 40°43' W 074°03'2 5.1
2017-Nov-14 13:01N 40°42' W 074°01'1 1.2
2017-Nov-14 12:31N 40°42' W 074°00'0 0.0
2017-Nov-14 12:01N 40°42' W 074°00'1 1.4
2017-Nov-14 11:31N 40°42' W 074°01'2 3.3
2017-Nov-14 11:01N 40°43' W 074°03'  
2017-Nov-10 17:11N 40°43' W 074°03'0 0.2
2017-Nov-10 17:00N 40°43' W 074°03'1 2.6
2017-Nov-10 16:30N 40°42' W 074°01'1 2.2
2017-Nov-10 16:00N 40°42' W 074°00'2 4.7
2017-Nov-10 15:30N 40°43' W 074°03'0 0.1
2017-Nov-10 15:00N 40°43' W 074°03'0 0.1
2017-Nov-10 14:30N 40°43' W 074°03'0 0.0
2017-Nov-10 14:00N 40°43' W 074°03'0 0.0
2017-Nov-10 13:30N 40°43' W 074°03'0 0.0
2017-Nov-10 13:00N 40°43' W 074°03'0 0.0
2017-Nov-10 12:30N 40°43' W 074°03'0 0.0
2017-Nov-09 14:36N 40°43' W 074°03'0 2.0
2017-Nov-09 14:30N 40°43' W 074°03'2 4.4
2017-Nov-09 14:00N 40°42' W 074°00'0 0.0
2017-Nov-09 13:30N 40°42' W 074°00'0 0.1
2017-Nov-09 13:01N 40°42' W 074°00'  
Track history (hours):
 
Tides and Currents Weather Stations Pressure Air Temp Water Temp Dewpoint Dewpoint Depression Visibility Wind Speed Wind Dir Waves Ship Positions

Little C

Last reported at 2017-Nov-18 19:45 UTC. Time now 2017-Nov-24 11:11 UTC.
Position N 40°43' W 074°03'.

Type: Tug. MMSI: 367308350.

Date/timePositionNaut miles runAvg speedWind from/ knotsBaromVisibWave heightAir tempDewpointWater temp
2017-Nov-18 19:45N 40°43' W 074°03'0 0.1
2017-Nov-18 19:30N 40°43' W 074°03'1 2.6
2017-Nov-18 19:00N 40°42' W 074°01'1 2.2
2017-Nov-18 18:30N 40°42' W 074°00'0 0.0
2017-Nov-18 18:00N 40°42' W 074°00'2 0.0
2017-Nov-16 16:55N 40°43' W 074°03'2 5.7
2017-Nov-16 16:30N 40°42' W 074°00'0 0.1
2017-Nov-16 16:00N 40°42' W 074°00'0 0.2
2017-Nov-16 15:30N 40°42' W 074°00'1 1.5
2017-Nov-16 15:00N 40°42' W 074°01'2 3.3
2017-Nov-16 14:30N 40°43' W 074°03'0 0.0
2017-Nov-16 14:00N 40°43' W 074°03'0 0.0
2017-Nov-16 13:30N 40°43' W 074°03'0 0.0
2017-Nov-16 13:00N 40°43' W 074°03'0 0.0
2017-Nov-14 13:22N 40°43' W 074°03'2 5.1
2017-Nov-14 13:01N 40°42' W 074°01'1 1.2
2017-Nov-14 12:31N 40°42' W 074°00'0 0.0
2017-Nov-14 12:01N 40°42' W 074°00'1 1.4
2017-Nov-14 11:31N 40°42' W 074°01'2 3.3
2017-Nov-14 11:01N 40°43' W 074°03'  
2017-Nov-10 17:11N 40°43' W 074°03'0 0.2
2017-Nov-10 17:00N 40°43' W 074°03'1 2.6
2017-Nov-10 16:30N 40°42' W 074°01'1 2.2
2017-Nov-10 16:00N 40°42' W 074°00'2 4.7
2017-Nov-10 15:30N 40°43' W 074°03'0 0.1
2017-Nov-10 15:00N 40°43' W 074°03'0 0.1
2017-Nov-10 14:30N 40°43' W 074°03'0 0.0
2017-Nov-10 14:00N 40°43' W 074°03'0 0.0
2017-Nov-10 13:30N 40°43' W 074°03'0 0.0
2017-Nov-10 13:00N 40°43' W 074°03'0 0.0
2017-Nov-10 12:30N 40°43' W 074°03'0 0.0
2017-Nov-09 14:36N 40°43' W 074°03'0 2.0
2017-Nov-09 14:30N 40°43' W 074°03'2 4.4
2017-Nov-09 14:00N 40°42' W 074°00'0 0.0
2017-Nov-09 13:30N 40°42' W 074°00'0 0.1
2017-Nov-09 13:01N 40°42' W 074°00'  

Dump ship's entire track history